Wichita Mid Continent Airport
KICT : now visible

Airfield :











YOU CAN JOIN US ON...

 
LOGIN :

Register | Disclaimer

   EN    FR    IT 

 









Legend :    VFR   Marginal VFR   IFR   Intensive IFR   Very Intensive IFR
Visi :
Ceiling :
>= 8 km
>= 3000ft
5 to 8 km
1000 to 3000 ft
1500m to 5 km
500 to 1000 ft
800 to 1500m
200 to 500 ft
< 800m
< 200 ft
Symbols :   Thunderstorms  Fog  Heavy snow  Heavy precipitations  Wind > 20 kt







- Airport Elevation : 1333 ft
- IATA code : ICT


KICT - Wichita Mid Continent

CURRENT METAR :
  • 162253Z 16015KT 10SM FEW070 SCT150 BKN250 32/19 A2998 RMK AO2 SLP138 T03170194

EXPIRED METARs :
  • 162153Z 16014G21KT 10SM FEW070 SCT150 SCT250 33/18 A2999 RMK AO2 SLP138 T03280183
  • 162053Z 16013G24KT 10SM SCT070 BKN250 33/19 A3000 RMK AO2 SLP141 T03280189 56023

TAF KICT
Valid from the 16 at 18:00 until the 17 at 18:00 UTC


161720Z 1618/1718 19012G20KT P6SM FEW060 BKN250
FM162100 17015G22KT P6SM FEW070 SCT250
FM170100 15010KT P6SM BKN250
FM171600 19012G20KT P6SM BKN250
No reported NOTAMs for that airfield.



MET'MAP, your aeronautical weather chart ! - Copyright ORBIFLY December 2007 - Disclaimer

ORBIFLY MET'MAP TEAM :

Programming & Development : Alexandra Zaïnal
Concept & Development : Baudouin d'Aumeries
Co-Development & Prog : Marc-Olivier Méhu
Technical & hardware support : Manuel Goepfert

Contact : metmap@orbifly.com




SOURCES & CREDITS :

   NOAA       Earth
Advisory